Hawaii Aviation Weather2018-05-12T02:28:12+00:00

Hawaii Aviation Weather

Weather Information Updated from 1800wxbrief.com

Please note, all weather information provided should be validated for accuracy before flying. Click on each Blue link for more information.

REAL TIME LOCAL RADAR – Base Reflectivity (10min)
Partly Cloudy
Sunday
Partly Cloudy
High 82°/Low 70°
0%
Partly Cloudy
Monday
Partly Cloudy
High 80°/Low 65°
0%
Partly Cloudy
Tuesday
Partly Cloudy
High 80°/Low 67°
20%
Clear
Wednesday
Clear
High 77°/Low 68°
10%
Clear
Thursday
Clear
High 77°/Low 69°
10%
Partly Cloudy
Friday
Partly Cloudy
High 80°/Low 70°
20%
Partly Cloudy
Saturday
Partly Cloudy
High 81°/Low 70°
10%

General Forecasts (Prog Charts)
Hawaii Lo-Level Sig Progs

Thunderstorm & Severe Weather Forecast
Hawaii Severe Weather Outlook

General Forecasts (Prog Charts)
NE Pacific Surface Analysis

General Forecasts (Prog Charts)
Hawaii Surface Forecast

Aviation Weather from NOAA

PHNL – Honolulu

Available data for PHNL from the past 2 hours
HONOLULU, HI
Metar
PHNL 170853Z 04009KT 10SM SCT038 23/16 A3015 RMK AO2 SLP209 T02280156 51007 VISNO RWY04R $

08:53 UTC

Wind: 40° 9kt

Visibility: 10 SM

Sky: SCT 3800 ft

Temp: 23 deg C / 73.4 deg F

Dewpoint: 16 deg C / 60.8 deg F

Pressure: 30.15 inHg

TAF
PHNL 170902Z 1709/1812 04009KT P6SM FEW035 FEW060 FM172000 06012KT P6SM FEW025 SCT040 FM180500 05007KT P6SM FEW025

PHJR – Kalealoa (Rogers)

Available data for PHJR from the past 2 hours
KALAELOA, HI
Metar
PHJR 170853Z AUTO 04004KT 10SM FEW040 20/15 A3016 RMK AO2 SLP219 T02000150 51007 TSNO

08:53 UTC

Wind: 40° 4kt

Visibility: 10 SM

Sky: FEW 4000 ft

Temp: 20 deg C / 68 deg F

Dewpoint: 15 deg C / 59 deg F

Pressure: 30.16 inHg

TAF
PHJR 170526Z 1706/1806 VRB04KT P6SM SKC FM172000 10008KT P6SM FEW040 FM180500 VRB04KT P6SM SKC

PHNG – Kaneohe

Available data for PHNG from the past 2 hours
KANEOHE MCAS, HI
Metar
PHNG 170757Z 05010G15KT 7SM OVC039 24/18 A3013 RMK SLP198 T02390178

07:57 UTC

Wind: 50° 10kt

Visibility: 7 SM

Sky: OVC 3900 ft

Temp: 24 deg C / 75.2 deg F

Dewpoint: 18 deg C / 64.4 deg F

Pressure: 30.13 inHg

TAF
TAF PHNG 1709/1809 05010G16KT 9999 BKN035 QNH3008INS TEMPO 1709/1715 07008KT 8000 -SHRA BKN025 OVC035 FM171700 06010G18KT 9999 SCT040 QNH3008INS T23/1713Z T26/1723Z

PHHI – Wheeler

Available data for PHHI from the past 2 hours
WHEELER AFB/OAHU, HI
Metar
PHHI 170856Z AUTO 00000KT 10SM SCT034 20/15 M RMK AO2 SLPNO T02040154 $
Honolulu 3 Day Forecast (Wind, Temp, etc)
HAWAII INFRARED Satellite
HAWAII Visible Satellite
HAWAII National Weather Service Forecast
Please check that this widget Google Reviews has a Google Place ID set.